createdAt,value
2019-02-26T00:01:57.569Z,97.00
2019-02-26T00:04:27.275Z,97.00
2019-02-26T00:06:58.037Z,97.00
2019-02-26T00:09:29.958Z,97.00
2019-02-26T00:11:58.864Z,97.00
2019-02-26T00:14:30.232Z,97.00
2019-02-26T00:16:58.648Z,97.00
2019-02-26T00:19:27.737Z,97.00
2019-02-26T00:21:56.829Z,97.00
2019-02-26T00:24:25.911Z,97.00
2019-02-26T00:26:55.047Z,97.00
2019-02-26T00:29:25.345Z,97.00
2019-02-26T00:31:57.527Z,97.00
2019-02-26T00:34:25.724Z,97.00
2019-02-26T00:36:54.741Z,97.00
2019-02-26T00:39:25.037Z,97.00
2019-02-26T00:41:55.772Z,97.00
2019-02-26T00:44:25.649Z,97.00
2019-02-26T00:46:57.571Z,97.00
2019-02-26T00:49:28.501Z,97.00
2019-02-26T00:51:57.312Z,97.00
2019-02-26T00:54:28.727Z,97.00
2019-02-26T00:57:01.095Z,97.00
2019-02-26T00:59:28.184Z,97.00
2019-02-26T01:01:59.297Z,97.00
2019-02-26T01:04:28.146Z,97.00
2019-02-26T01:06:58.999Z,97.00
2019-02-26T01:09:29.470Z,97.00
2019-02-26T01:11:58.797Z,97.00
2019-02-26T01:14:27.879Z,97.00
2019-02-26T01:16:56.997Z,97.00
2019-02-26T01:19:26.102Z,97.00
2019-02-26T01:21:55.233Z,97.00
2019-02-26T01:24:25.867Z,97.00
2019-02-26T01:26:55.121Z,97.00
2019-02-26T01:29:25.903Z,97.00
2019-02-26T01:31:54.896Z,97.00
2019-02-26T01:34:23.953Z,97.00
2019-02-26T01:36:52.992Z,97.00
2019-02-26T01:39:23.389Z,97.00
2019-02-26T01:41:54.080Z,97.00
2019-02-26T01:44:23.406Z,97.00
2019-02-26T01:46:53.348Z,97.00
2019-02-26T01:49:23.740Z,97.00
2019-02-26T01:51:54.016Z,97.00
2019-02-26T01:54:23.013Z,97.00
2019-02-26T01:56:53.454Z,97.00
2019-02-26T01:59:22.552Z,97.00
2019-02-26T02:01:53.620Z,97.00
2019-02-26T02:04:22.502Z,97.00
2019-02-26T02:06:51.576Z,97.00
2019-02-26T02:09:22.752Z,97.00
2019-02-26T02:11:51.952Z,97.00
2019-02-26T02:14:21.042Z,97.00
2019-02-26T02:16:50.084Z,97.00
2019-02-26T02:19:22.270Z,97.00
2019-02-26T02:21:51.524Z,97.00
2019-02-26T02:24:22.408Z,97.00
2019-02-26T02:26:53.541Z,97.00
2019-02-26T02:29:24.062Z,97.00
2019-02-26T02:31:54.870Z,97.00
2019-02-26T02:34:27.000Z,97.00
2019-02-26T02:36:54.856Z,97.00
2019-02-26T02:39:26.425Z,97.00
2019-02-26T02:41:54.999Z,97.00
2019-02-26T02:44:25.581Z,97.00
2019-02-26T02:46:54.694Z,97.00
2019-02-26T02:49:23.732Z,97.00
2019-02-26T02:51:52.895Z,97.00
2019-02-26T02:54:23.630Z,97.00
2019-02-26T02:56:52.739Z,97.00
2019-02-26T02:59:22.032Z,97.00
2019-02-26T03:01:52.722Z,97.00
2019-02-26T03:04:22.793Z,97.00
2019-02-26T03:06:53.699Z,97.00
2019-02-26T03:09:23.689Z,97.00
2019-02-26T03:11:54.931Z,97.00
2019-02-26T03:14:23.628Z,97.00
2019-02-26T03:16:53.521Z,97.00
2019-02-26T03:19:22.950Z,97.00
2019-02-26T03:21:52.982Z,97.00
2019-02-26T03:24:25.579Z,97.00
2019-02-26T03:26:53.761Z,97.00
2019-02-26T03:29:22.867Z,97.00
2019-02-26T03:31:55.112Z,97.00
2019-02-26T03:34:25.278Z,97.00
2019-02-26T03:36:53.943Z,97.00
2019-02-26T03:39:23.431Z,97.00
2019-02-26T03:41:53.486Z,97.00
2019-02-26T03:44:23.733Z,97.00
2019-02-26T03:46:53.190Z,97.00
2019-02-26T03:49:26.296Z,97.00
2019-02-26T03:51:53.354Z,97.00
2019-02-26T03:54:22.625Z,97.00
2019-02-26T03:56:52.187Z,97.00
2019-02-26T03:59:22.951Z,97.00
2019-02-26T04:01:52.497Z,97.00
2019-02-26T04:04:23.000Z,97.00
2019-02-26T04:06:52.933Z,97.00
2019-02-26T04:09:25.332Z,97.00
2019-02-26T04:11:55.409Z,97.00
2019-02-26T04:14:26.383Z,97.00
2019-02-26T04:16:58.649Z,97.00
2019-02-26T04:19:27.311Z,97.00
2019-02-26T04:22:27.604Z,97.00
2019-02-26T04:25:01.501Z,97.00
2019-02-26T04:28:10.971Z,97.00
2019-02-26T04:31:16.843Z,97.00
2019-02-26T04:34:08.489Z,97.00
2019-02-26T04:36:53.741Z,97.00
2019-02-26T04:40:14.799Z,97.00
2019-02-26T04:43:12.912Z,97.00
2019-02-26T04:46:28.226Z,97.00
2019-02-26T04:48:57.156Z,97.00
2019-02-26T04:51:26.296Z,97.00
2019-02-26T04:53:56.825Z,97.00
2019-02-26T04:56:31.270Z,97.00
2019-02-26T04:58:58.248Z,97.00
2019-02-26T05:01:27.472Z,97.00
2019-02-26T05:03:57.083Z,97.00
2019-02-26T05:06:26.507Z,97.00
2019-02-26T05:08:59.334Z,97.00
2019-02-26T05:11:31.374Z,97.00
2019-02-26T05:13:58.442Z,97.00
2019-02-26T05:16:29.484Z,97.00
2019-02-26T05:18:59.301Z,97.00
2019-02-26T05:21:30.441Z,97.00
2019-02-26T05:24:00.215Z,97.00
2019-02-26T05:26:30.508Z,97.00
2019-02-26T05:28:59.759Z,97.00
2019-02-26T05:31:29.627Z,97.00
2019-02-26T05:34:00.061Z,97.00
2019-02-26T05:36:31.105Z,97.00
2019-02-26T05:39:02.164Z,97.00
2019-02-26T05:41:30.876Z,97.00
2019-02-26T05:44:03.496Z,97.00
2019-02-26T05:46:30.806Z,97.00
2019-02-26T05:48:59.944Z,97.00
2019-02-26T05:51:30.365Z,97.00
2019-02-26T05:54:02.462Z,97.00
2019-02-26T05:56:30.614Z,97.00
2019-02-26T05:59:02.099Z,97.00
2019-02-26T06:01:30.415Z,97.00
2019-02-26T06:03:59.513Z,97.00
2019-02-26T06:06:28.618Z,97.00
2019-02-26T06:08:59.764Z,97.00
2019-02-26T06:11:33.234Z,97.00
2019-02-26T06:14:03.977Z,97.00
2019-02-26T06:16:31.468Z,97.00
2019-02-26T06:19:00.747Z,97.00
2019-02-26T06:21:29.972Z,97.00
2019-02-26T06:23:59.085Z,97.00
2019-02-26T06:26:32.653Z,97.00
2019-02-26T06:29:00.132Z,97.00
2019-02-26T06:31:29.282Z,97.00
2019-02-26T06:34:01.488Z,97.00
2019-02-26T06:36:30.478Z,97.00
2019-02-26T06:39:01.343Z,97.00
2019-02-26T06:41:30.499Z,97.00
2019-02-26T06:43:59.640Z,97.00
2019-02-26T06:46:30.903Z,97.00
2019-02-26T06:48:59.741Z,97.00
2019-02-26T06:51:30.630Z,97.00
2019-02-26T06:54:01.054Z,97.00
2019-02-26T06:56:34.397Z,97.00
2019-02-26T06:59:09.883Z,97.00
2019-02-26T07:01:41.929Z,97.00
2019-02-26T07:04:12.923Z,97.00
2019-02-26T07:06:42.053Z,97.00
2019-02-26T07:09:13.311Z,97.00
2019-02-26T07:11:42.152Z,97.00
2019-02-26T07:14:11.196Z,97.00
2019-02-26T07:16:40.507Z,97.00
2019-02-26T07:19:11.528Z,97.00
2019-02-26T07:21:42.740Z,97.00
2019-02-26T07:24:11.129Z,97.00
2019-02-26T07:26:41.725Z,97.00
2019-02-26T07:29:13.169Z,97.00
2019-02-26T07:31:41.976Z,97.00
2019-02-26T07:34:11.070Z,97.00
2019-02-26T07:36:41.164Z,97.00
2019-02-26T07:39:13.023Z,97.00
2019-02-26T07:41:42.300Z,97.00
2019-02-26T07:44:15.554Z,97.00
2019-02-26T07:46:44.770Z,97.00
2019-02-26T07:49:13.556Z,97.00
2019-02-26T07:51:43.104Z,97.00
2019-02-26T07:54:12.341Z,97.00
2019-02-26T07:56:41.448Z,97.00
2019-02-26T07:59:12.444Z,97.00
2019-02-26T08:01:42.950Z,97.00
2019-02-26T08:04:13.517Z,97.00
2019-02-26T08:06:43.120Z,97.00
2019-02-26T08:09:14.526Z,97.00
2019-02-26T08:11:44.397Z,97.00
2019-02-26T08:14:16.068Z,97.00
2019-02-26T08:16:49.260Z,97.00
2019-02-26T08:19:15.808Z,97.00
2019-02-26T08:21:45.477Z,97.00
2019-02-26T08:24:17.134Z,97.00
2019-02-26T08:26:47.485Z,97.00
2019-02-26T08:29:17.238Z,97.00
2019-02-26T08:31:47.459Z,97.00
2019-02-26T08:34:17.171Z,97.00
2019-02-26T08:36:46.912Z,97.00
2019-02-26T08:39:16.067Z,97.00
2019-02-26T08:42:02.792Z,97.00
2019-02-26T08:44:31.893Z,97.00
2019-02-26T08:47:06.038Z,97.00
2019-02-26T08:49:31.945Z,97.00
2019-02-26T08:52:01.089Z,97.00
2019-02-26T08:54:31.280Z,97.00
2019-02-26T08:57:00.775Z,96.00
2019-02-26T08:59:29.901Z,94.90
2019-02-26T09:01:58.908Z,94.30
2019-02-26T09:04:27.953Z,93.40
2019-02-26T09:06:57.645Z,93.30
2019-02-26T09:09:28.245Z,92.50
2019-02-26T09:12:00.644Z,91.00
2019-02-26T09:14:32.154Z,90.90
2019-02-26T09:17:01.963Z,91.10
2019-02-26T09:19:32.873Z,90.40
2019-02-26T09:22:01.985Z,89.30
2019-02-26T09:24:31.211Z,88.80
2019-02-26T09:27:02.322Z,88.20
2019-02-26T09:29:31.443Z,87.30
2019-02-26T09:32:00.740Z,86.60
2019-02-26T09:34:31.809Z,85.60
2019-02-26T09:37:03.050Z,84.60
2019-02-26T09:39:32.513Z,84.50
2019-02-26T09:42:04.131Z,83.70
2019-02-26T09:44:33.991Z,82.70
2019-02-26T09:47:05.409Z,82.30
2019-02-26T09:49:35.717Z,81.30
2019-02-26T09:52:06.461Z,80.00
2019-02-26T09:54:40.221Z,79.90
2019-02-26T09:57:06.608Z,79.30
2019-02-26T09:59:36.590Z,79.00
2019-02-26T10:02:06.580Z,78.10
2019-02-26T10:04:36.934Z,77.90
2019-02-26T10:07:07.542Z,76.20
2019-02-26T10:09:37.450Z,75.60
2019-02-26T10:12:09.766Z,74.90
2019-02-26T10:14:38.578Z,74.00
2019-02-26T10:17:09.198Z,74.20
2019-02-26T10:19:41.054Z,73.40
2019-02-26T10:22:13.315Z,73.50
2019-02-26T10:24:40.657Z,73.80
2019-02-26T10:27:11.383Z,73.10
2019-02-26T10:29:42.957Z,72.20
2019-02-26T10:32:11.954Z,69.50
2019-02-26T10:34:40.944Z,67.80
2019-02-26T10:37:10.127Z,67.70
2019-02-26T10:39:39.156Z,67.40
2019-02-26T10:42:08.192Z,66.70
2019-02-26T10:44:37.286Z,65.40
2019-02-26T10:47:08.284Z,65.60
2019-02-26T10:49:37.155Z,64.80
2019-02-26T10:52:06.325Z,64.40
2019-02-26T10:54:40.123Z,63.70
2019-02-26T10:57:07.685Z,63.10
2019-02-26T10:59:37.027Z,62.80
2019-02-26T11:02:06.356Z,62.90
2019-02-26T11:04:38.136Z,60.10
2019-02-26T11:07:08.702Z,60.90
2019-02-26T11:09:37.241Z,59.80
2019-02-26T11:12:08.465Z,59.70
2019-02-26T11:14:39.078Z,58.50
2019-02-26T11:17:07.716Z,55.10
2019-02-26T11:19:39.592Z,56.70
2019-02-26T11:22:08.228Z,57.30
2019-02-26T11:24:37.390Z,57.80
2019-02-26T11:27:06.496Z,57.80
2019-02-26T11:29:37.949Z,58.60
2019-02-26T11:32:07.864Z,58.90
2019-02-26T11:34:38.313Z,58.00
2019-02-26T11:37:08.764Z,56.40
2019-02-26T11:39:38.168Z,56.70
2019-02-26T11:42:07.368Z,55.60
2019-02-26T11:44:36.508Z,54.90
2019-02-26T11:47:05.579Z,56.40
2019-02-26T11:49:36.826Z,57.50
2019-02-26T11:52:05.577Z,58.40
2019-02-26T11:54:37.144Z,59.40
2019-02-26T11:57:09.800Z,58.60
2019-02-26T11:59:38.088Z,57.70
2019-02-26T12:02:07.255Z,58.20
2019-02-26T12:04:36.339Z,57.50
2019-02-26T12:07:07.415Z,57.30
2019-02-26T12:09:38.510Z,56.40
2019-02-26T12:12:09.231Z,56.30
2019-02-26T12:14:40.203Z,56.50
2019-02-26T12:17:08.728Z,55.70
2019-02-26T12:19:37.831Z,55.10
2019-02-26T12:22:07.028Z,54.10
2019-02-26T12:24:36.280Z,56.70
2019-02-26T12:27:07.393Z,56.00
2019-02-26T12:29:36.229Z,56.40
2019-02-26T12:32:05.406Z,55.50
2019-02-26T12:34:35.136Z,53.40
2019-02-26T12:37:06.633Z,52.30
2019-02-26T12:39:36.077Z,49.90
2019-02-26T12:42:10.441Z,48.50
2019-02-26T12:44:42.305Z,45.70
2019-02-26T12:47:11.521Z,46.40
2019-02-26T12:49:42.226Z,46.40
2019-02-26T12:52:11.442Z,46.30
2019-02-26T12:54:42.733Z,44.10
2019-02-26T12:57:11.444Z,44.70
2019-02-26T12:59:40.490Z,46.20
2019-02-26T13:02:12.864Z,45.20
2019-02-26T13:04:41.008Z,44.80
2019-02-26T13:07:11.158Z,42.90
2019-02-26T13:09:47.017Z,41.90
2019-02-26T13:12:12.676Z,39.80
2019-02-26T13:14:41.843Z,39.40
2019-02-26T13:17:13.984Z,39.10
2019-02-26T13:19:41.815Z,39.60
2019-02-26T13:22:13.730Z,40.80
2019-02-26T13:24:42.001Z,40.60
2019-02-26T13:27:11.238Z,40.30
2019-02-26T13:29:47.495Z,40.30
2019-02-26T13:32:13.690Z,40.90
2019-02-26T13:34:42.569Z,38.00
2019-02-26T13:37:11.707Z,41.30
2019-02-26T13:39:41.420Z,40.90
2019-02-26T13:42:14.102Z,41.70
2019-02-26T13:44:42.548Z,40.90
2019-02-26T13:47:11.672Z,40.80
2019-02-26T13:49:40.735Z,40.00
2019-02-26T13:52:10.130Z,39.70
2019-02-26T13:54:39.289Z,40.20
2019-02-26T13:57:09.268Z,40.30
2019-02-26T13:59:38.423Z,40.10
2019-02-26T14:02:08.115Z,38.10
2019-02-26T14:04:37.201Z,39.00
2019-02-26T14:07:06.429Z,39.30
2019-02-26T14:09:35.571Z,39.70
2019-02-26T14:12:04.737Z,41.10
2019-02-26T14:14:33.781Z,41.80
2019-02-26T14:17:02.855Z,42.10
2019-02-26T14:19:32.063Z,43.60
2019-02-26T14:22:01.213Z,43.30
2019-02-26T14:24:30.339Z,43.00
2019-02-26T14:26:59.434Z,43.00
2019-02-26T14:29:29.799Z,42.90
2019-02-26T14:31:58.877Z,43.10
2019-02-26T14:34:28.034Z,42.90
2019-02-26T14:36:57.546Z,42.80
2019-02-26T14:39:26.771Z,42.80
2019-02-26T14:41:55.865Z,41.70
2019-02-26T14:44:25.019Z,41.90
2019-02-26T14:46:55.273Z,44.20
2019-02-26T14:49:24.419Z,44.60
2019-02-26T14:51:53.519Z,44.60
2019-02-26T14:54:22.643Z,44.70
2019-02-26T14:56:51.747Z,44.40
2019-02-26T14:59:20.823Z,44.20
2019-02-26T15:01:49.943Z,44.00
2019-02-26T15:04:18.936Z,44.00
2019-02-26T15:06:47.988Z,44.10
2019-02-26T15:09:17.219Z,43.70
2019-02-26T15:11:46.707Z,43.70
2019-02-26T15:14:15.782Z,43.80
2019-02-26T15:16:47.829Z,43.80
2019-02-26T15:19:17.040Z,43.70
2019-02-26T15:21:46.381Z,44.00
2019-02-26T15:24:15.382Z,43.80
2019-02-26T15:26:44.508Z,43.10
2019-02-26T15:29:19.848Z,43.10
2019-02-26T15:31:56.256Z,43.40
2019-02-26T15:34:31.337Z,42.00
2019-02-26T15:37:10.589Z,41.90
2019-02-26T15:39:47.489Z,41.40
2019-02-26T15:42:21.118Z,40.90
2019-02-26T15:44:53.627Z,40.70
2019-02-26T15:47:22.945Z,41.40
2019-02-26T15:49:52.116Z,42.60
2019-02-26T15:52:22.282Z,44.00
2019-02-26T15:54:51.445Z,44.60
2019-02-26T15:57:20.526Z,45.60
2019-02-26T15:59:51.272Z,46.30
2019-02-26T16:02:20.409Z,46.80
2019-02-26T16:04:49.596Z,47.90
2019-02-26T16:07:18.728Z,48.40
2019-02-26T16:09:47.865Z,48.60
2019-02-26T16:12:16.846Z,49.30
2019-02-26T16:14:45.942Z,48.30
2019-02-26T16:17:15.087Z,46.80
2019-02-26T16:19:44.181Z,47.90
2019-02-26T16:22:13.484Z,47.40
2019-02-26T16:24:42.600Z,48.50
2019-02-26T16:27:11.595Z,48.60
2019-02-26T16:29:40.805Z,48.90
2019-02-26T16:32:09.805Z,49.20
2019-02-26T16:34:38.924Z,49.60
2019-02-26T16:37:10.822Z,49.50
2019-02-26T16:39:40.601Z,49.10
2019-02-26T16:42:11.761Z,49.50
2019-02-26T16:44:41.588Z,49.60
2019-02-26T16:47:14.672Z,50.40
2019-02-26T16:49:44.539Z,50.80
2019-02-26T16:52:13.801Z,51.40
2019-02-26T16:54:42.948Z,52.10
2019-02-26T16:57:12.051Z,54.00
2019-02-26T16:59:41.463Z,55.60
2019-02-26T17:02:10.960Z,57.20
2019-02-26T17:04:40.811Z,57.70
2019-02-26T17:07:10.791Z,58.50
2019-02-26T17:09:39.904Z,59.70
2019-02-26T17:12:11.918Z,61.40
2019-02-26T17:14:43.458Z,61.60
2019-02-26T17:17:12.588Z,62.40
2019-02-26T17:19:42.827Z,64.50
2019-02-26T17:22:15.156Z,65.70
2019-02-26T17:24:44.526Z,66.10
2019-02-26T17:27:13.878Z,66.40
2019-02-26T17:29:42.937Z,66.50
2019-02-26T17:32:12.176Z,66.80
2019-02-26T17:34:41.593Z,67.20
2019-02-26T17:37:12.072Z,68.20
2019-02-26T17:39:41.477Z,70.10
2019-02-26T17:42:11.002Z,71.70
2019-02-26T17:44:40.146Z,72.30
2019-02-26T17:47:09.302Z,73.00
2019-02-26T17:49:38.445Z,73.40
2019-02-26T17:52:07.620Z,74.40
2019-02-26T17:54:37.452Z,75.50
2019-02-26T17:57:06.660Z,76.70
2019-02-26T17:59:35.653Z,77.60
2019-02-26T18:02:05.029Z,78.00
2019-02-26T18:04:34.123Z,78.70
2019-02-26T18:07:03.220Z,79.80
2019-02-26T18:09:34.410Z,80.50
2019-02-26T18:12:03.263Z,81.40
2019-02-26T18:14:32.995Z,81.40
2019-02-26T18:17:02.170Z,81.70
2019-02-26T18:19:31.389Z,82.40
2019-02-26T18:22:00.481Z,82.90
2019-02-26T18:24:29.478Z,83.00
2019-02-26T18:26:58.533Z,85.20
2019-02-26T18:29:27.621Z,85.60
2019-02-26T18:31:56.694Z,86.80
2019-02-26T18:34:25.769Z,87.80
2019-02-26T18:36:54.811Z,88.20
2019-02-26T18:39:23.887Z,89.20
2019-02-26T18:41:52.997Z,89.50
2019-02-26T18:44:21.966Z,90.40
2019-02-26T18:46:51.053Z,93.50
2019-02-26T18:49:21.862Z,95.60
2019-02-26T18:51:51.110Z,95.70
2019-02-26T18:54:21.122Z,96.10
2019-02-26T18:56:50.418Z,96.50
2019-02-26T18:59:21.607Z,97.00
2019-02-26T19:01:50.425Z,97.00
2019-02-26T19:04:19.634Z,97.00
2019-02-26T19:06:48.925Z,97.00
2019-02-26T19:09:18.137Z,97.00
2019-02-26T19:11:47.225Z,97.00
2019-02-26T19:14:16.346Z,97.00
2019-02-26T19:16:45.462Z,97.00
2019-02-26T19:19:14.745Z,97.00
2019-02-26T19:21:44.131Z,97.00
2019-02-26T19:24:13.321Z,97.00
2019-02-26T19:26:44.483Z,97.00
2019-02-26T19:29:13.431Z,97.00
2019-02-26T19:31:42.840Z,97.00
2019-02-26T19:34:12.328Z,97.00
2019-02-26T19:36:45.473Z,97.00
2019-02-26T19:39:13.548Z,97.00
2019-02-26T19:41:45.494Z,97.00
2019-02-26T19:44:14.587Z,97.00
2019-02-26T19:46:49.399Z,97.00
2019-02-26T19:49:18.298Z,97.00
2019-02-26T19:51:47.415Z,97.00
2019-02-26T19:54:16.597Z,97.00
2019-02-26T19:56:45.867Z,97.00
2019-02-26T19:59:14.921Z,97.00
2019-02-26T20:01:45.773Z,97.00
2019-02-26T20:04:15.001Z,97.00
2019-02-26T20:06:44.151Z,97.00
2019-02-26T20:09:16.545Z,97.00
2019-02-26T20:11:45.829Z,97.00
2019-02-26T20:14:21.195Z,97.00
2019-02-26T20:16:45.701Z,97.00
2019-02-26T20:19:14.919Z,97.00
2019-02-26T20:21:44.014Z,97.00
2019-02-26T20:24:16.452Z,97.00
2019-02-26T20:26:43.795Z,97.00
2019-02-26T20:29:12.933Z,97.00
2019-02-26T20:31:42.341Z,97.00
2019-02-26T20:34:18.497Z,97.00
2019-02-26T20:36:48.824Z,97.00
2019-02-26T20:39:19.281Z,97.00
2019-02-26T20:41:48.616Z,97.00
2019-02-26T20:44:17.603Z,97.00
2019-02-26T20:46:46.679Z,97.00
2019-02-26T20:49:16.785Z,97.00
2019-02-26T20:51:45.853Z,97.00
2019-02-26T20:54:15.057Z,97.00
2019-02-26T20:56:44.988Z,97.00
2019-02-26T20:59:17.556Z,97.00
2019-02-26T21:01:49.511Z,97.00
2019-02-26T21:04:18.734Z,97.00
2019-02-26T21:06:50.676Z,97.00
2019-02-26T21:09:18.747Z,97.00
2019-02-26T21:11:47.841Z,97.00
2019-02-26T21:14:17.292Z,97.00
2019-02-26T21:16:46.627Z,97.00
2019-02-26T21:19:15.733Z,97.00
2019-02-26T21:21:48.824Z,97.00
2019-02-26T21:24:15.667Z,97.00
2019-02-26T21:26:44.637Z,97.00
2019-02-26T21:29:13.721Z,97.00
2019-02-26T21:31:42.711Z,97.00
2019-02-26T21:34:11.762Z,97.00
2019-02-26T21:36:40.800Z,97.00
2019-02-26T21:39:11.094Z,97.00
2019-02-26T21:41:40.791Z,97.00
2019-02-26T21:44:09.863Z,97.00
2019-02-26T21:46:39.023Z,97.00
2019-02-26T21:49:09.995Z,97.00
2019-02-26T21:51:39.158Z,97.00
2019-02-26T21:54:08.315Z,97.00
2019-02-26T21:56:37.447Z,97.00
2019-02-26T21:59:06.522Z,97.00
2019-02-26T22:01:35.599Z,97.00
2019-02-26T22:04:04.617Z,97.00
2019-02-26T22:06:33.733Z,97.00
2019-02-26T22:09:02.971Z,97.00
2019-02-26T22:11:34.968Z,97.00
2019-02-26T22:14:04.272Z,97.00
2019-02-26T22:16:35.119Z,97.00
2019-02-26T22:19:04.744Z,97.00
2019-02-26T22:21:36.598Z,97.00
2019-02-26T22:24:06.972Z,97.00
2019-02-26T22:26:37.199Z,97.00
2019-02-26T22:29:07.931Z,97.00
2019-02-26T22:31:36.992Z,97.00
2019-02-26T22:34:05.989Z,97.00
2019-02-26T22:36:36.889Z,97.00
2019-02-26T22:39:06.903Z,97.00
2019-02-26T22:41:35.911Z,97.00
2019-02-26T22:44:05.106Z,97.00
2019-02-26T22:46:36.250Z,97.00
2019-02-26T22:49:05.308Z,97.00
2019-02-26T22:51:34.953Z,97.00
2019-02-26T22:54:09.420Z,97.00
2019-02-26T22:56:36.841Z,97.00
2019-02-26T22:59:07.999Z,97.00
2019-02-26T23:01:44.413Z,97.00
2019-02-26T23:04:13.864Z,97.00
2019-02-26T23:06:43.087Z,97.00
2019-02-26T23:09:17.641Z,97.00
2019-02-26T23:11:45.979Z,97.00
2019-02-26T23:14:15.633Z,97.00
2019-02-26T23:16:44.805Z,97.00
2019-02-26T23:19:14.553Z,97.00
2019-02-26T23:21:44.137Z,97.00
2019-02-26T23:24:13.223Z,97.00
2019-02-26T23:26:42.642Z,97.00
2019-02-26T23:29:11.834Z,97.00
2019-02-26T23:31:41.566Z,97.00
2019-02-26T23:34:10.578Z,97.00
2019-02-26T23:36:42.627Z,97.00
2019-02-26T23:39:14.670Z,97.00
2019-02-26T23:41:43.790Z,97.00
2019-02-26T23:44:13.153Z,97.00
2019-02-26T23:46:42.324Z,97.00
2019-02-26T23:49:11.765Z,97.00
2019-02-26T23:51:42.159Z,97.00
2019-02-26T23:54:11.186Z,97.00
2019-02-26T23:56:40.619Z,97.00
2019-02-26T23:59:10.186Z,97.00
